M/V Yankee Clipper — WDC3923 — position and weather

sailwx.info

Track history (hours):
 
Tides and Currents Weather Stations Pressure Air Temp Water Temp Dewpoint Dewpoint Depression Visibility Wind Speed Wind Dir Waves Ship Positions

M/V Yankee Clipper

Owner: M/V Yankee Clipper, Inc., Seattle, WA. More information available from US FCC via Universal Licensing System and Coast Guard Vessel Documentation Center.

Last reported at 2015-Aug-26 14:33 UTC. Time now 2015-Sep-02 17:02 UTC.
Position N 47°40' W 122°23'.

Length 27 m; draft 4 m.

Type: Fishing. MMSI: 367016340.

Date/timePositionNaut miles runAvg speedWind from/ knotsBaromVisibWave heightAir tempDewpointWater temp
2015-Aug-26 14:33N 47°40' W 122°23'0 0.0
2015-Aug-26 13:33N 47°40' W 122°23'0 0.0
2015-Aug-26 12:33N 47°40' W 122°23'0 0.0
2015-Aug-26 11:33N 47°40' W 122°23'0 0.0
2015-Aug-26 10:33N 47°40' W 122°23'0 0.0
2015-Aug-26 09:33N 47°40' W 122°23'0 0.0
2015-Aug-26 08:33N 47°40' W 122°23'0 0.0
2015-Aug-26 07:33N 47°40' W 122°23'0 0.0
2015-Aug-26 06:33N 47°40' W 122°23'0 0.0
2015-Aug-26 05:33N 47°40' W 122°23'0 0.0
2015-Aug-26 04:33N 47°40' W 122°23'0 0.0
2015-Aug-26 03:33N 47°40' W 122°23'0 0.0
2015-Aug-26 02:33N 47°40' W 122°23'0 0.0
2015-Aug-26 01:33N 47°40' W 122°23'0 0.0
2015-Aug-26 00:33N 47°40' W 122°23'0 0.0
2015-Aug-25 23:33N 47°40' W 122°23'0 0.0
2015-Aug-25 22:33N 47°40' W 122°23'0 0.0
2015-Aug-25 21:34N 47°40' W 122°23'0 0.0
2015-Aug-25 20:33N 47°40' W 122°23'0 0.0
2015-Aug-25 19:33N 47°40' W 122°23'0 0.0
2015-Aug-25 18:33N 47°40' W 122°23'0 0.0
2015-Aug-25 17:33N 47°40' W 122°23'0 0.0
2015-Aug-25 16:33N 47°40' W 122°23'0 0.0
2015-Aug-25 15:33N 47°40' W 122°23'3 3.4
2015-Aug-25 14:33N 47°43' W 122°25'9 8.8
2015-Aug-25 13:33N 47°51' W 122°28'7 7.1
2015-Aug-25 12:31N 47°57' W 122°34'13 5.9
2015-Aug-25 10:13N 48°09' W 122°44'5 7.1
2015-Aug-25 09:28N 48°13' W 122°49'9 9.3
2015-Aug-25 08:30N 48°22' W 122°46'9 9.1
2015-Aug-25 07:33N 48°31' W 122°45'9 8.5
2015-Aug-25 06:33N 48°39' W 122°43'8 8.0
2015-Aug-25 05:33N 48°46' W 122°50'10 9.6
2015-Aug-25 04:33N 48°51' W 123°02'9 9.2
2015-Aug-25 03:33N 48°57' W 123°13'9 9.1
2015-Aug-25 02:33N 49°03' W 123°24'9 9.0
2015-Aug-25 01:32N 49°09' W 123°35'9 9.1
2015-Aug-25 00:33N 49°14' W 123°46'9 9.3
2015-Aug-24 23:33N 49°18' W 123°58'9 9.4
2015-Aug-24 22:33N 49°23' W 124°11'9 8.8
2015-Aug-24 21:33N 49°28' W 124°22'9 9.4
2015-Aug-24 20:33N 49°34' W 124°32'9 9.5
2015-Aug-24 19:33N 49°41' W 124°43'10 9.3
2015-Aug-24 18:32N 49°47' W 124°54'9 8.9
2015-Aug-24 17:33N 49°54' W 125°03'1010.3
2015-Aug-24 16:33N 50°02' W 125°13'1111.3
2015-Aug-24 15:33N 50°11' W 125°22'44 7.3
2015-Aug-24 09:29N 50°30' W 126°26'15 7.2
2015-Aug-24 07:25N 50°37' W 126°46'10 8.6
2015-Aug-24 06:15N 50°44' W 126°58'6 8.8
2015-Aug-24 05:33N 50°47' W 127°06'9 8.9
2015-Aug-24 04:33N 50°52' W 127°18'9 9.0
2015-Aug-24 03:33N 50°57' W 127°29'9 9.0
2015-Aug-24 02:34N 51°03' W 127°40'9 9.1
2015-Aug-24 01:33N 51°10' W 127°50'11 9.1
2015-Aug-24 00:24N 51°21' W 127°51'8 9.1
2015-Aug-23 23:32N 51°28' W 127°50'  
Track history (hours):
 
Tides and Currents Weather Stations Pressure Air Temp Water Temp Dewpoint Dewpoint Depression Visibility Wind Speed Wind Dir Waves Ship Positions

M/V Yankee Clipper

Owner: M/V Yankee Clipper, Inc., Seattle, WA. More information available from US FCC via Universal Licensing System and Coast Guard Vessel Documentation Center.

Last reported at 2015-Aug-26 14:33 UTC. Time now 2015-Sep-02 17:02 UTC.
Position N 47°40' W 122°23'.

Length 27 m; draft 4 m.

Type: Fishing. MMSI: 367016340.

Date/timePositionNaut miles runAvg speedWind from/ knotsBaromVisibWave heightAir tempDewpointWater temp
2015-Aug-26 14:33N 47°40' W 122°23'0 0.0
2015-Aug-26 13:33N 47°40' W 122°23'0 0.0
2015-Aug-26 12:33N 47°40' W 122°23'0 0.0
2015-Aug-26 11:33N 47°40' W 122°23'0 0.0
2015-Aug-26 10:33N 47°40' W 122°23'0 0.0
2015-Aug-26 09:33N 47°40' W 122°23'0 0.0
2015-Aug-26 08:33N 47°40' W 122°23'0 0.0
2015-Aug-26 07:33N 47°40' W 122°23'0 0.0
2015-Aug-26 06:33N 47°40' W 122°23'0 0.0
2015-Aug-26 05:33N 47°40' W 122°23'0 0.0
2015-Aug-26 04:33N 47°40' W 122°23'0 0.0
2015-Aug-26 03:33N 47°40' W 122°23'0 0.0
2015-Aug-26 02:33N 47°40' W 122°23'0 0.0
2015-Aug-26 01:33N 47°40' W 122°23'0 0.0
2015-Aug-26 00:33N 47°40' W 122°23'0 0.0
2015-Aug-25 23:33N 47°40' W 122°23'0 0.0
2015-Aug-25 22:33N 47°40' W 122°23'0 0.0
2015-Aug-25 21:34N 47°40' W 122°23'0 0.0
2015-Aug-25 20:33N 47°40' W 122°23'0 0.0
2015-Aug-25 19:33N 47°40' W 122°23'0 0.0
2015-Aug-25 18:33N 47°40' W 122°23'0 0.0
2015-Aug-25 17:33N 47°40' W 122°23'0 0.0
2015-Aug-25 16:33N 47°40' W 122°23'0 0.0
2015-Aug-25 15:33N 47°40' W 122°23'3 3.4
2015-Aug-25 14:33N 47°43' W 122°25'9 8.8
2015-Aug-25 13:33N 47°51' W 122°28'7 7.1
2015-Aug-25 12:31N 47°57' W 122°34'13 5.9
2015-Aug-25 10:13N 48°09' W 122°44'5 7.1
2015-Aug-25 09:28N 48°13' W 122°49'9 9.3
2015-Aug-25 08:30N 48°22' W 122°46'9 9.1
2015-Aug-25 07:33N 48°31' W 122°45'9 8.5
2015-Aug-25 06:33N 48°39' W 122°43'8 8.0
2015-Aug-25 05:33N 48°46' W 122°50'10 9.6
2015-Aug-25 04:33N 48°51' W 123°02'9 9.2
2015-Aug-25 03:33N 48°57' W 123°13'9 9.1
2015-Aug-25 02:33N 49°03' W 123°24'9 9.0
2015-Aug-25 01:32N 49°09' W 123°35'9 9.1
2015-Aug-25 00:33N 49°14' W 123°46'9 9.3
2015-Aug-24 23:33N 49°18' W 123°58'9 9.4
2015-Aug-24 22:33N 49°23' W 124°11'9 8.8
2015-Aug-24 21:33N 49°28' W 124°22'9 9.4
2015-Aug-24 20:33N 49°34' W 124°32'9 9.5
2015-Aug-24 19:33N 49°41' W 124°43'10 9.3
2015-Aug-24 18:32N 49°47' W 124°54'9 8.9
2015-Aug-24 17:33N 49°54' W 125°03'1010.3
2015-Aug-24 16:33N 50°02' W 125°13'1111.3
2015-Aug-24 15:33N 50°11' W 125°22'44 7.3
2015-Aug-24 09:29N 50°30' W 126°26'15 7.2
2015-Aug-24 07:25N 50°37' W 126°46'10 8.6
2015-Aug-24 06:15N 50°44' W 126°58'6 8.8
2015-Aug-24 05:33N 50°47' W 127°06'9 8.9
2015-Aug-24 04:33N 50°52' W 127°18'9 9.0
2015-Aug-24 03:33N 50°57' W 127°29'9 9.0
2015-Aug-24 02:34N 51°03' W 127°40'9 9.1
2015-Aug-24 01:33N 51°10' W 127°50'11 9.1
2015-Aug-24 00:24N 51°21' W 127°51'8 9.1
2015-Aug-23 23:32N 51°28' W 127°50'  

Dump ship's entire track history